Time;durP1;ratioP1;P1;durP2;ratioP2;P2;SDS_P1;SDS_P2;PMS_P1;PMS_P2;Temp;Humidity;BMP_temperature;BMP_pressure;BME280_temperature;BME280_humidity;BME280_pressure;Samples;Min_cycle;Max_cycle;Signal;HPM_P1;HPM_P2
2023/10/10 00:02:19;;;;;;;6.72;3.25;;;15.50;99.90;;;;;;5053502;28;20127;-71
2023/10/10 00:04:54;;;;;;;6.97;3.70;;;15.40;99.90;;;;;;5036180;28;20091;-71
2023/10/10 00:07:24;;;;;;;5.53;3.40;;;15.40;99.90;;;;;;5054345;28;20052;-71
2023/10/10 00:09:50;;;;;;;7.47;3.50;;;15.40;99.90;;;;;;5052915;28;20044;-71
2023/10/10 00:12:26;;;;;;;7.85;3.70;;;15.40;99.90;;;;;;5053303;28;20041;-71
2023/10/10 00:14:57;;;;;;;7.40;3.95;;;15.40;99.90;;;;;;5035976;28;20126;-71
2023/10/10 00:17:29;;;;;;;9.05;4.72;;;15.40;99.90;;;;;;5053050;28;20040;-71
2023/10/10 00:20:15;;;;;;;8.10;4.20;;;15.40;99.90;;;;;;5035646;28;20124;-71
2023/10/10 00:22:43;;;;;;;7.47;4.90;;;15.40;99.90;;;;;;5053186;28;20053;-71
2023/10/10 00:25:12;;;;;;;7.80;4.70;;;15.40;99.90;;;;;;5052480;28;20511;-71
2023/10/10 00:27:39;;;;;;;10.13;4.88;;;15.30;99.90;;;;;;5035734;28;20504;-71
2023/10/10 00:30:06;;;;;;;7.97;4.90;;;15.30;99.90;;;;;;5052336;28;20569;-71
2023/10/10 00:32:35;;;;;;;7.55;4.85;;;15.20;99.90;;;;;;5036198;28;20045;-71
2023/10/10 00:35:02;;;;;;;10.18;5.35;;;15.20;99.90;;;;;;5035311;28;20049;-71
2023/10/10 00:37:29;;;;;;;7.28;4.85;;;15.20;99.90;;;;;;5052764;28;20076;-71
2023/10/10 00:40:00;;;;;;;7.10;4.80;;;15.20;99.90;;;;;;5052775;28;20094;-71
2023/10/10 00:42:41;;;;;;;7.25;4.90;;;15.10;99.90;;;;;;5053074;28;20048;-71
2023/10/10 00:45:14;;;;;;;7.53;4.75;;;15.10;99.90;;;;;;5052483;28;20480;-71
2023/10/10 00:47:48;;;;;;;6.38;4.63;;;15.10;99.90;;;;;;5052970;28;20049;-71
2023/10/10 00:50:16;;;;;;;8.57;5.00;;;15.10;99.90;;;;;;5035201;28;20519;-71
2023/10/10 00:52:50;;;;;;;9.05;5.13;;;15.10;99.90;;;;;;5052195;28;20589;-71
2023/10/10 00:55:22;;;;;;;7.35;4.57;;;15.00;99.90;;;;;;5053683;28;20045;-71
2023/10/10 00:57:52;;;;;;;9.10;3.97;;;14.90;99.90;;;;;;5052756;28;20082;-71
2023/10/10 01:00:19;;;;;;;8.13;4.22;;;14.90;99.90;;;;;;5033995;28;20041;-71
2023/10/10 01:02:46;;;;;;;8.77;4.72;;;14.80;99.90;;;;;;5034954;28;20037;-71
2023/10/10 01:05:12;;;;;;;7.45;4.28;;;14.80;99.90;;;;;;5052721;28;20091;-71
2023/10/10 01:07:39;;;;;;;7.13;4.13;;;14.70;99.90;;;;;;5052228;28;20044;-71
2023/10/10 01:10:16;;;;;;;7.20;4.10;;;14.70;99.90;;;;;;5034698;28;20055;-71
2023/10/10 01:12:44;;;;;;;11.95;4.45;;;14.60;99.90;;;;;;5034616;28;20510;-71
2023/10/10 01:15:15;;;;;;;9.02;4.45;;;14.60;99.90;;;;;;5034019;28;20492;-71
2023/10/10 01:17:45;;;;;;;6.88;4.45;;;14.50;99.90;;;;;;5052819;28;20045;-71
2023/10/10 01:22:56;;;;;;;6.28;4.30;;;14.80;99.90;;;;;;5052450;28;20139;-71
2023/10/10 01:25:42;;;;;;;7.13;4.15;;;14.40;99.90;;;;;;5052665;28;20091;-71
2023/10/10 01:28:33;;;;;;;8.13;4.55;;;14.30;99.90;;;;;;5051051;28;20067;-71
2023/10/10 01:31:10;;;;;;;8.43;4.60;;;14.30;99.90;;;;;;5052204;28;20090;-71
2023/10/10 01:33:36;;;;;;;6.45;4.47;;;14.20;99.90;;;;;;5051931;28;20534;-71
2023/10/10 01:36:11;;;;;;;9.38;5.10;;;14.20;99.90;;;;;;5051824;28;20041;-70
2023/10/10 01:38:44;;;;;;;9.13;4.72;;;14.20;99.90;;;;;;5034982;28;20052;-71
2023/10/10 01:41:22;;;;;;;10.50;4.80;;;14.20;99.90;;;;;;5033939;28;20403;-70
2023/10/10 01:43:53;;;;;;;7.53;4.88;;;14.30;99.90;;;;;;5052378;28;20076;-71
2023/10/10 01:46:27;;;;;;;11.48;5.10;;;14.30;99.90;;;;;;5052278;28;20085;-71
2023/10/10 01:48:57;;;;;;;9.35;5.10;;;14.40;99.90;;;;;;5051227;28;20106;-70
2023/10/10 01:51:26;;;;;;;9.55;5.00;;;14.40;99.90;;;;;;5052463;28;20045;-70
2023/10/10 01:53:52;;;;;;;11.02;5.47;;;14.40;99.90;;;;;;5052328;28;20037;-71
2023/10/10 01:56:18;;;;;;;9.23;5.20;;;14.40;99.90;;;;;;5051247;28;20068;-71
2023/10/10 01:58:44;;;;;;;8.40;5.20;;;14.50;99.90;;;;;;5036505;28;20080;-71
2023/10/10 02:01:16;;;;;;;9.75;5.60;;;14.50;99.90;;;;;;5056123;28;20441;-71
2023/10/10 02:03:43;;;;;;;11.02;6.20;;;14.50;99.90;;;;;;5037695;28;20052;-70
2023/10/10 02:06:24;;;;;;;13.32;6.50;;;14.50;99.90;;;;;;5056137;28;20047;-71
2023/10/10 02:08:51;;;;;;;9.90;5.85;;;14.60;99.90;;;;;;5037026;28;20072;-71
2023/10/10 02:11:20;;;;;;;10.05;5.82;;;14.50;99.90;;;;;;5038352;28;20045;-70
2023/10/10 02:13:50;;;;;;;10.15;6.40;;;14.60;99.90;;;;;;5055977;28;20052;-70
2023/10/10 02:16:23;;;;;;;8.60;5.82;;;14.60;99.90;;;;;;5037640;28;20515;-70
2023/10/10 02:18:53;;;;;;;11.85;6.10;;;14.60;99.90;;;;;;5056026;28;20119;-71
2023/10/10 02:21:31;;;;;;;10.60;5.63;;;14.50;99.90;;;;;;5038402;28;20140;-70
2023/10/10 02:24:19;;;;;;;13.02;6.07;;;14.60;99.90;;;;;;5055012;28;20369;-71
2023/10/10 02:26:51;;;;;;;10.63;6.28;;;14.70;99.90;;;;;;5055733;28;20088;-70
2023/10/10 02:29:21;;;;;;;9.38;6.20;;;14.70;99.90;;;;;;5056042;28;20063;-70
2023/10/10 02:32:08;;;;;;;11.68;6.18;;;14.60;99.90;;;;;;5055135;28;20079;-70
2023/10/10 02:34:34;;;;;;;9.85;6.07;;;14.70;99.90;;;;;;5037331;28;20056;-70
2023/10/10 02:39:48;;;;;;;10.93;6.00;;;14.70;99.90;;;;;;5055932;28;20049;-70
2023/10/10 02:42:18;;;;;;;11.73;6.45;;;14.80;99.90;;;;;;5038078;28;20392;-70
2023/10/10 02:44:52;;;;;;;13.80;6.47;;;14.80;99.90;;;;;;5054526;28;20072;-70
2023/10/10 02:47:30;;;;;;;12.48;6.53;;;14.80;99.90;;;;;;5055377;28;20051;-70
2023/10/10 02:50:12;;;;;;;10.55;6.20;;;14.90;99.90;;;;;;5037380;28;20041;-70
2023/10/10 02:52:45;;;;;;;10.25;6.90;;;14.90;99.90;;;;;;5054908;28;20069;-70
2023/10/10 02:55:22;;;;;;;12.90;6.30;;;14.90;99.90;;;;;;5054808;28;20507;-70
2023/10/10 02:57:48;;;;;;;14.45;7.00;;;14.90;99.90;;;;;;5054352;28;20124;-70
2023/10/10 03:02:55;;;;;;;13.35;6.68;;;14.90;99.90;;;;;;5055144;28;20049;-71
2023/10/10 03:06:06;;;;;;;11.48;7.00;;;15.00;99.90;;;;;;5053991;28;20045;-71
2023/10/10 03:08:13;;;;;;;;;;;15.00;99.90;;;;;;5021209;28;20157;-71
2023/10/10 03:10:45;;;;;;;10.77;7.28;;;15.00;99.90;;;;;;5034315;28;19967;-71
2023/10/10 03:13:27;;;;;;;16.98;8.05;;;15.00;99.90;;;;;;5034182;28;20485;-71
2023/10/10 03:16:19;;;;;;;14.05;7.60;;;15.00;99.90;;;;;;5034801;28;20477;-70
2023/10/10 03:27:00;;;;;;;13.35;8.45;;;15.10;99.90;;;;;;5053418;28;20041;-70
2023/10/10 03:29:47;;;;;;;19.15;8.23;;;15.00;99.90;;;;;;5036833;28;20111;-72
2023/10/10 03:32:32;;;;;;;17.63;8.15;;;15.00;99.90;;;;;;5054959;28;20251;-71
2023/10/10 03:35:06;;;;;;;16.35;8.68;;;15.00;99.90;;;;;;5052710;28;20040;-73
2023/10/10 03:37:42;;;;;;;17.40;8.93;;;15.00;99.90;;;;;;5036085;28;20480;-71
2023/10/10 03:41:04;;;;;;;15.18;8.90;;;15.00;99.90;;;;;;5053714;28;20182;-71
2023/10/10 05:24:42;;;;;;;30.63;17.02;;;14.80;99.90;;;;;;5052657;28;20476;-73
2023/10/10 05:27:10;;;;;;;37.05;18.02;;;14.90;99.90;;;;;;5033904;28;20067;-74
2023/10/10 05:29:36;;;;;;;38.33;18.15;;;14.80;99.90;;;;;;5052018;28;20059;-72
2023/10/10 05:32:08;;;;;;;35.13;17.27;;;14.80;99.90;;;;;;5052113;28;20125;-78
2023/10/10 05:34:34;;;;;;;40.25;18.48;;;14.70;99.90;;;;;;5050987;28;20049;-75
2023/10/10 05:37:00;;;;;;;38.00;19.75;;;14.70;99.90;;;;;;5050949;28;20184;-71
2023/10/10 05:39:31;;;;;;;35.13;18.77;;;14.70;99.90;;;;;;5050228;28;20037;-72
2023/10/10 05:41:59;;;;;;;40.65;20.00;;;14.80;99.90;;;;;;5032237;28;20054;-71
2023/10/10 05:44:25;;;;;;;44.03;21.48;;;14.70;99.90;;;;;;5051326;28;20056;-72
2023/10/10 05:46:52;;;;;;;44.63;19.98;;;14.70;99.90;;;;;;5046992;28;20068;-73
2023/10/10 05:49:18;;;;;;;46.42;22.05;;;14.70;99.90;;;;;;5046282;28;20057;-72
2023/10/10 05:51:44;;;;;;;43.63;20.45;;;14.70;99.90;;;;;;5032929;28;20462;-70
2023/10/10 05:54:11;;;;;;;39.95;20.60;;;14.80;99.90;;;;;;5030911;28;20048;-70
2023/10/10 05:56:37;;;;;;;41.95;20.77;;;14.80;99.90;;;;;;5031391;28;20504;-70
2023/10/10 05:59:04;;;;;;;37.55;19.42;;;14.80;99.90;;;;;;5030491;28;20059;-69
2023/10/10 06:01:30;;;;;;;43.28;19.83;;;14.80;99.90;;;;;;5049531;28;20053;-70
2023/10/10 06:03:57;;;;;;;39.47;19.83;;;14.80;99.90;;;;;;5050091;28;20041;-70
2023/10/10 06:06:23;;;;;;;32.00;18.38;;;14.80;99.90;;;;;;5031703;28;20076;-70
2023/10/10 06:09:00;;;;;;;41.60;18.95;;;15.00;99.90;;;;;;5030878;28;20079;-70
2023/10/10 06:11:27;;;;;;;35.30;18.75;;;14.90;99.90;;;;;;5032163;28;20408;-70
2023/10/10 06:13:53;;;;;;;42.25;20.25;;;15.00;99.90;;;;;;5050049;28;20040;-71
2023/10/10 06:16:20;;;;;;;38.30;17.98;;;15.10;99.90;;;;;;5031282;28;20080;-70
2023/10/10 06:18:47;;;;;;;38.42;18.10;;;15.10;99.90;;;;;;5051963;28;20033;-70
2023/10/10 06:21:14;;;;;;;35.25;18.00;;;15.30;99.90;;;;;;5048079;28;20037;-70
2023/10/10 06:23:42;;;;;;;39.25;18.85;;;15.40;99.90;;;;;;5051463;28;20040;-70
2023/10/10 06:26:09;;;;;;;42.92;19.90;;;15.30;99.90;;;;;;5051708;28;20073;-70
2023/10/10 06:28:35;;;;;;;41.70;20.65;;;15.30;99.90;;;;;;5052271;28;20053;-71
2023/10/10 06:31:02;;;;;;;44.60;20.70;;;15.30;99.90;;;;;;5046964;28;20041;-70
2023/10/10 06:33:28;;;;;;;43.90;20.52;;;15.30;99.90;;;;;;5033957;28;20074;-70
2023/10/10 06:38:59;;;;;;;38.50;18.45;;;15.30;99.90;;;;;;5051681;28;20084;-71
2023/10/10 06:41:35;;;;;;;40.25;19.08;;;15.40;99.90;;;;;;5052362;28;20175;-71
2023/10/10 06:44:01;;;;;;;36.38;20.58;;;15.50;99.90;;;;;;5051423;28;20400;-71
2023/10/10 06:46:32;;;;;;;48.00;21.92;;;15.50;99.90;;;;;;5036929;28;20045;-71
2023/10/10 06:49:04;;;;;;;46.72;23.08;;;15.50;99.90;;;;;;5054938;28;20075;-71
2023/10/10 06:51:33;;;;;;;39.83;21.77;;;15.50;99.90;;;;;;5035658;28;20045;-71
2023/10/10 06:53:59;;;;;;;50.53;24.52;;;15.50;99.90;;;;;;5037105;28;20061;-71
2023/10/10 06:59:09;;;;;;;42.97;22.92;;;15.60;99.90;;;;;;5053825;28;20131;-70
2023/10/10 07:01:35;;;;;;;46.67;23.50;;;15.60;99.90;;;;;;5055169;28;20126;-70
2023/10/10 07:04:04;;;;;;;45.92;24.17;;;15.70;99.90;;;;;;5054277;28;20048;-70
2023/10/10 07:06:30;;;;;;;41.97;22.65;;;15.70;99.90;;;;;;5055365;28;20048;-70
2023/10/10 07:11:40;;;;;;;44.90;23.67;;;15.80;99.90;;;;;;5054072;28;20093;-70
2023/10/10 07:14:09;;;;;;;46.40;25.48;;;15.80;99.90;;;;;;5036817;28;20052;-70
2023/10/10 07:16:44;;;;;;;55.28;26.50;;;15.80;99.90;;;;;;5037323;28;20048;-70
2023/10/10 07:19:30;;;;;;;47.10;24.48;;;15.80;99.90;;;;;;5054047;28;20033;-71
2023/10/10 07:21:59;;;;;;;50.75;24.63;;;15.90;99.90;;;;;;5036238;28;20057;-71
2023/10/10 07:24:28;;;;;;;44.25;24.15;;;16.10;99.90;;;;;;5054237;28;20047;-71
2023/10/10 07:27:10;;;;;;;45.42;24.35;;;16.10;99.90;;;;;;5053679;28;20472;-71
2023/10/10 07:32:16;;;;;;;49.60;25.48;;;16.20;99.90;;;;;;5053571;28;20626;-71
2023/10/10 07:34:49;;;;;;;50.28;26.08;;;16.20;99.90;;;;;;5054670;28;20055;-70
2023/10/10 07:37:16;;;;;;;50.10;25.30;;;16.30;99.90;;;;;;5036822;28;20095;-71
2023/10/10 07:42:30;;;;;;;46.15;25.15;;;16.40;99.90;;;;;;5036245;28;20057;-71
2023/10/10 07:45:03;;;;;;;48.92;26.60;;;16.50;99.90;;;;;;5054167;28;20477;-71
2023/10/10 07:48:31;;;;;;;48.35;25.20;;;16.50;99.90;;;;;;5053314;28;20450;-70
2023/10/10 07:50:26;;;;;;;49.00;26.48;;;16.60;99.90;;;;;;5034201;28;20052;-70
2023/10/10 07:52:55;;;;;;;44.05;24.67;;;16.60;99.90;;;;;;5016566;28;20492;-70
2023/10/10 07:55:24;;;;;;;46.25;24.08;;;16.60;99.90;;;;;;5033721;28;20045;-71
2023/10/10 07:57:55;;;;;;;44.45;27.42;;;16.70;99.90;;;;;;5025517;28;20044;-71
2023/10/10 08:00:34;;;;;;;47.47;26.38;;;16.60;99.90;;;;;;5021760;28;20050;-71
2023/10/10 08:03:00;;;;;;;44.67;25.63;;;16.60;99.90;;;;;;5036258;28;20080;-71
2023/10/10 08:05:29;;;;;;;43.78;25.08;;;16.70;99.90;;;;;;5054152;28;20068;-71
2023/10/10 08:07:58;;;;;;;46.80;26.20;;;16.80;99.90;;;;;;5052895;28;20052;-70
2023/10/10 08:10:37;;;;;;;49.72;26.35;;;16.70;99.90;;;;;;5036215;28;20052;-71
2023/10/10 08:13:10;;;;;;;46.58;25.42;;;16.70;99.90;;;;;;5035831;28;20128;-70
2023/10/10 08:15:50;;;;;;;43.35;24.85;;;16.80;99.90;;;;;;5052038;28;20048;-71
2023/10/10 08:18:39;;;;;;;48.25;26.98;;;16.80;99.90;;;;;;5053030;28;20051;-70
2023/10/10 08:23:30;;;;;;;46.20;27.48;;;16.80;99.90;;;;;;5030990;28;20053;-70
2023/10/10 08:25:56;;;;;;;42.67;25.98;;;16.80;99.90;;;;;;5053387;28;20028;-70
2023/10/10 08:28:23;;;;;;;47.17;27.55;;;16.90;99.90;;;;;;5052944;28;20037;-70
2023/10/10 08:30:49;;;;;;;43.97;26.88;;;16.90;99.90;;;;;;5050454;28;20110;-70
2023/10/10 08:33:15;;;;;;;46.63;27.55;;;16.90;99.90;;;;;;5037854;28;20052;-70
2023/10/10 08:35:42;;;;;;;45.85;27.13;;;16.90;99.90;;;;;;5035521;28;20814;-70
2023/10/10 08:38:13;;;;;;;45.67;25.10;;;16.90;99.90;;;;;;5053329;28;20045;-70
2023/10/10 08:40:40;;;;;;;44.63;26.23;;;17.00;99.90;;;;;;5053491;28;20055;-71
2023/10/10 08:43:09;;;;;;;43.38;25.95;;;17.10;99.90;;;;;;5030005;28;20124;-71
2023/10/10 08:45:43;;;;;;;47.20;27.85;;;17.30;99.90;;;;;;5034853;28;20045;-73
2023/10/10 08:48:15;;;;;;;48.13;29.25;;;17.40;99.90;;;;;;5034214;28;20079;-73
2023/10/10 08:50:42;;;;;;;43.03;26.77;;;17.50;99.90;;;;;;5034359;28;20111;-72
2023/10/10 08:53:20;;;;;;;48.58;27.15;;;17.70;99.90;;;;;;5052857;28;20040;-71
2023/10/10 08:55:56;;;;;;;44.88;26.30;;;17.90;99.90;;;;;;5053099;28;20049;-70
2023/10/10 08:58:22;;;;;;;41.38;25.73;;;18.20;99.90;;;;;;5033802;28;20044;-70
2023/10/10 09:00:51;;;;;;;41.97;27.13;;;18.30;99.90;;;;;;5052856;28;20045;-70
2023/10/10 09:03:17;;;;;;;40.00;24.45;;;18.40;99.90;;;;;;5034851;28;20037;-71
2023/10/10 09:05:44;;;;;;;41.65;26.63;;;18.70;99.90;;;;;;5052276;28;20049;-71
2023/10/10 09:08:16;;;;;;;45.28;27.35;;;18.80;99.90;;;;;;5051787;28;20052;-71
2023/10/10 09:10:47;;;;;;;36.03;22.75;;;19.10;99.90;;;;;;5033857;28;20122;-71
2023/10/10 09:13:13;;;;;;;37.97;24.83;;;19.60;99.90;;;;;;5034511;28;20057;-71
2023/10/10 09:15:54;;;;;;;39.22;25.52;;;20.10;99.90;;;;;;5048631;28;20045;-71
2023/10/10 09:18:25;;;;;;;38.10;23.20;;;20.30;99.90;;;;;;5052100;28;20040;-70
2023/10/10 09:20:53;;;;;;;36.92;23.27;;;20.50;99.90;;;;;;5052516;28;20045;-71
2023/10/10 09:23:26;;;;;;;34.10;21.27;;;20.60;99.90;;;;;;5052609;28;20364;-71
2023/10/10 09:26:09;;;;;;;35.15;23.55;;;20.80;99.90;;;;;;5052039;28;20484;-71
2023/10/10 09:28:45;;;;;;;31.98;21.77;;;20.90;99.90;;;;;;5034251;28;20191;-72
2023/10/10 09:31:20;;;;;;;;;;;20.80;99.90;;;;;;5055417;28;20063;-70
2023/10/10 09:33:47;;;;;;;35.83;23.67;;;20.40;99.90;;;;;;5066510;28;19928;-71
2023/10/10 09:36:19;;;;;;;37.58;23.10;;;20.00;99.90;;;;;;5034795;28;20064;-70
2023/10/10 09:38:47;;;;;;;36.58;24.85;;;19.90;99.90;;;;;;5051911;28;20037;-71
2023/10/10 09:41:28;;;;;;;35.25;24.40;;;19.80;99.90;;;;;;5052545;28;20385;-74
2023/10/10 09:58:16;;;;;;;35.10;22.08;;;22.70;99.90;;;;;;5037017;28;20057;-71
2023/10/10 10:06:36;;;;;;;33.15;22.17;;;22.20;99.90;;;;;;5052106;28;20045;-70
2023/10/10 10:09:32;;;;;;;34.58;22.95;;;21.90;99.90;;;;;;5032672;28;20048;-70
2023/10/10 10:12:22;;;;;;;36.08;21.85;;;21.40;99.90;;;;;;5033466;28;20147;-70
2023/10/10 10:15:21;;;;;;;31.10;21.15;;;21.50;99.90;;;;;;5032974;28;20053;-71
2023/10/10 10:18:13;;;;;;;29.40;20.58;;;21.60;99.90;;;;;;5034182;28;20056;-71
2023/10/10 10:20:47;;;;;;;30.45;22.08;;;21.80;99.90;;;;;;5037170;28;20048;-71
2023/10/10 10:23:26;;;;;;;32.80;22.08;;;21.40;99.90;;;;;;5037059;28;20095;-72
2023/10/10 10:25:54;;;;;;;34.65;22.27;;;21.20;99.90;;;;;;5037197;28;20056;-72
2023/10/10 10:28:28;;;;;;;35.55;21.35;;;21.10;99.90;;;;;;5055103;28;20045;-73
2023/10/10 10:30:54;;;;;;;32.78;21.90;;;21.00;99.90;;;;;;5054717;28;20037;-73
2023/10/10 10:33:24;;;;;;;30.05;22.48;;;20.90;99.90;;;;;;5055849;28;20037;-73
2023/10/10 10:36:06;;;;;;;33.63;22.45;;;20.80;99.90;;;;;;5054958;28;20048;-73
2023/10/10 10:38:39;;;;;;;30.02;21.27;;;20.60;99.90;;;;;;5055825;28;20080;-73
2023/10/10 10:41:07;;;;;;;32.25;22.65;;;20.80;99.90;;;;;;5037753;28;20090;-73
2023/10/10 10:43:41;;;;;;;32.72;22.05;;;21.40;99.90;;;;;;5054918;28;20052;-73
2023/10/10 10:46:15;;;;;;;34.03;20.20;;;21.90;99.90;;;;;;5054746;28;20091;-73
2023/10/10 10:48:48;;;;;;;34.30;21.80;;;22.00;99.90;;;;;;5032069;28;20080;-73
2023/10/10 10:51:32;;;;;;;29.58;19.05;;;22.30;99.90;;;;;;5032375;28;20033;-73
2023/10/10 10:54:07;;;;;;;30.00;18.80;;;22.90;99.90;;;;;;5033183;28;20085;-73
2023/10/10 10:59:35;;;;;;;30.48;18.13;;;24.20;99.90;;;;;;5033339;28;20162;-73
2023/10/10 11:02:00;;;;;;;28.05;17.88;;;25.20;99.90;;;;;;5033656;28;20050;-73
2023/10/10 11:07:04;;;;;;;26.75;16.90;;;26.90;99.90;;;;;;5034668;28;20099;-73
2023/10/10 11:09:34;;;;;;;26.67;16.73;;;27.20;99.90;;;;;;5033836;28;20088;-73
2023/10/10 11:12:02;;;;;;;28.45;15.63;;;27.40;99.90;;;;;;5034104;28;20136;-75
2023/10/10 11:14:33;;;;;;;26.63;15.75;;;28.00;99.90;;;;;;5034042;28;20045;-73
2023/10/10 11:17:17;;;;;;;24.83;15.73;;;28.10;99.90;;;;;;5034183;28;20049;-73
2023/10/10 11:19:43;;;;;;;22.48;13.88;;;28.50;99.90;;;;;;5014105;28;20054;-73
2023/10/10 11:24:57;;;;;;;23.85;13.70;;;28.60;99.90;;;;;;5033713;28;20049;-74
2023/10/10 11:27:29;;;;;;;23.00;13.57;;;28.30;99.90;;;;;;5026759;28;20045;-77
2023/10/10 11:30:00;;;;;;;26.17;13.13;;;28.60;99.90;;;;;;5013705;28;20050;-79
2023/10/10 11:32:36;;;;;;;20.23;12.10;;;28.70;99.90;;;;;;5026709;28;20049;-72
2023/10/10 11:38:09;;;;;;;22.15;12.20;;;28.60;99.90;;;;;;5025331;28;19921;-74
2023/10/10 11:40:36;;;;;;;23.25;12.85;;;28.50;99.90;;;;;;5032655;28;20049;-74
2023/10/10 11:43:06;;;;;;;21.40;10.80;;;27.80;99.90;;;;;;5034148;28;20045;-73
2023/10/10 11:45:51;;;;;;;22.42;11.82;;;27.10;99.90;;;;;;5033862;28;20049;-73
2023/10/10 11:48:17;;;;;;;24.33;12.10;;;26.70;99.90;;;;;;5032983;28;20136;-74
2023/10/10 11:50:45;;;;;;;24.63;11.30;;;26.30;99.90;;;;;;5033220;28;20084;-74
2023/10/10 11:53:24;;;;;;;20.25;11.35;;;26.00;99.90;;;;;;5032642;28;20045;-74
2023/10/10 11:56:04;;;;;;;20.15;11.73;;;25.50;99.90;;;;;;5034042;28;20084;-74
2023/10/10 11:58:39;;;;;;;24.80;11.75;;;24.80;99.90;;;;;;5034464;28;20038;-73
2023/10/10 12:01:10;;;;;;;21.45;11.48;;;24.40;99.90;;;;;;5031886;28;20080;-74
2023/10/10 12:03:42;;;;;;;19.73;11.32;;;24.00;99.90;;;;;;5033006;28;20116;-75
2023/10/10 12:06:17;;;;;;;22.40;11.90;;;23.80;99.90;;;;;;5033885;28;20102;-75
2023/10/10 12:08:50;;;;;;;21.60;11.10;;;23.40;99.90;;;;;;5030199;28;20048;-74
2023/10/10 12:11:25;;;;;;;20.73;11.93;;;23.00;99.90;;;;;;5032816;28;20127;-74
2023/10/10 12:13:52;;;;;;;21.10;12.15;;;22.60;99.90;;;;;;5031884;28;20041;-74
2023/10/10 12:16:23;;;;;;;23.23;12.10;;;22.30;99.90;;;;;;5032989;28;20360;-74
2023/10/10 12:18:59;;;;;;;21.77;11.63;;;22.20;99.90;;;;;;5013908;28;20042;-74
2023/10/10 12:21:25;;;;;;;21.58;10.57;;;21.90;99.90;;;;;;5028948;28;20034;-74
2023/10/10 12:23:54;;;;;;;22.45;11.70;;;21.90;99.90;;;;;;5033591;28;20056;-74
2023/10/10 12:26:22;;;;;;;21.17;10.73;;;22.10;99.90;;;;;;5033785;28;20053;-74
2023/10/10 12:28:48;;;;;;;19.85;10.85;;;22.20;99.90;;;;;;5034148;28;20048;-72
2023/10/10 12:31:17;;;;;;;23.58;10.95;;;22.40;99.90;;;;;;5026558;28;20124;-74
2023/10/10 12:33:48;;;;;;;21.35;11.05;;;22.30;99.90;;;;;;5032431;28;20045;-75
2023/10/10 12:36:15;;;;;;;20.20;10.13;;;22.10;99.90;;;;;;5032826;28;20065;-74
2023/10/10 12:38:41;;;;;;;18.55;10.40;;;21.80;99.90;;;;;;5033456;28;20048;-75
2023/10/10 12:41:11;;;;;;;22.27;11.13;;;21.80;99.90;;;;;;5031625;28;20045;-74
2023/10/10 12:43:37;;;;;;;24.38;11.00;;;21.70;99.90;;;;;;5031331;28;20081;-73
2023/10/10 12:46:04;;;;;;;22.15;12.10;;;21.60;99.90;;;;;;5031697;28;20045;-74
2023/10/10 12:48:31;;;;;;;22.67;11.90;;;21.40;99.90;;;;;;5031447;28;20049;-74
2023/10/10 12:51:00;;;;;;;25.05;12.23;;;21.30;99.90;;;;;;5020395;28;20056;-73
2023/10/10 12:53:30;;;;;;;23.65;11.98;;;21.20;99.90;;;;;;5033115;28;20061;-74
2023/10/10 12:56:01;;;;;;;27.58;14.00;;;21.10;99.90;;;;;;5030937;28;20103;-75
2023/10/10 12:58:28;;;;;;;27.33;14.55;;;21.00;99.90;;;;;;5032175;28;20053;-75
2023/10/10 13:00:54;;;;;;;24.73;14.45;;;21.10;99.90;;;;;;5031235;28;20041;-74
2023/10/10 13:03:30;;;;;;;24.13;13.85;;;21.60;99.90;;;;;;5031940;28;20140;-73
2023/10/10 13:06:00;;;;;;;24.35;14.02;;;22.30;99.90;;;;;;5031152;28;20137;-72
2023/10/10 13:08:47;;;;;;;24.25;13.20;;;22.50;99.90;;;;;;5031497;28;20377;-74
2023/10/10 13:11:17;;;;;;;28.20;15.07;;;22.70;99.90;;;;;;5030581;28;20443;-73
2023/10/10 13:13:56;;;;;;;26.98;14.80;;;22.50;99.90;;;;;;5032533;28;20041;-75
2023/10/10 13:16:27;;;;;;;26.88;15.63;;;22.40;99.90;;;;;;5031665;28;20053;-73
2023/10/10 13:18:56;;;;;;;24.40;14.65;;;22.20;99.90;;;;;;5030393;28;20120;-74
2023/10/10 13:21:22;;;;;;;25.13;15.10;;;22.00;99.90;;;;;;5028384;28;20504;-74
2023/10/10 13:23:49;;;;;;;30.17;15.48;;;21.90;99.90;;;;;;5028280;28;20476;-73
2023/10/10 13:26:18;;;;;;;28.23;16.73;;;21.70;99.90;;;;;;5030506;28;20048;-73
2023/10/10 13:28:44;;;;;;;25.55;14.90;;;21.50;99.90;;;;;;5028672;28;20072;-75
2023/10/10 13:31:14;;;;;;;28.55;16.35;;;21.60;99.90;;;;;;5026347;28;20396;-74
2023/10/10 13:33:40;;;;;;;27.75;16.70;;;21.50;99.90;;;;;;5028852;28;20496;-73
2023/10/10 13:36:17;;;;;;;27.45;15.18;;;21.40;99.90;;;;;;5029705;28;20042;-72
2023/10/10 13:38:50;;;;;;;27.90;16.60;;;21.30;99.90;;;;;;5028714;28;20404;-73
2023/10/10 13:41:29;;;;;;;24.30;15.45;;;21.20;99.90;;;;;;5030331;28;20548;-73
2023/10/10 13:43:59;;;;;;;25.50;14.02;;;21.20;99.90;;;;;;5028468;28;20029;-73
2023/10/10 13:46:27;;;;;;;26.38;12.68;;;21.10;99.90;;;;;;5028148;28;20535;-72
2023/10/10 13:48:53;;;;;;;24.63;12.57;;;21.10;99.90;;;;;;5027251;28;20049;-72
2023/10/10 13:51:19;;;;;;;32.72;20.52;;;21.10;99.90;;;;;;5026338;28;20488;-73
2023/10/10 13:53:46;;;;;;;37.70;23.23;;;21.10;99.90;;;;;;5023525;28;20084;-72
2023/10/10 13:56:13;;;;;;;40.10;25.98;;;21.10;99.90;;;;;;5045614;28;20490;-72
2023/10/10 13:58:46;;;;;;;36.47;25.83;;;21.10;99.90;;;;;;5044298;28;20408;-73
2023/10/10 14:01:25;;;;;;;39.85;26.42;;;21.20;99.90;;;;;;5049726;28;20049;-73
2023/10/10 14:03:57;;;;;;;38.67;25.77;;;21.10;99.90;;;;;;5043169;28;20121;-72
2023/10/10 14:06:26;;;;;;;36.50;24.40;;;21.00;99.90;;;;;;5033277;28;20171;-72
2023/10/10 14:08:53;;;;;;;37.65;26.25;;;21.00;99.90;;;;;;5039472;28;20040;-73
2023/10/10 14:11:21;;;;;;;36.33;24.08;;;21.00;99.90;;;;;;5036534;28;20037;-72
2023/10/10 14:13:52;;;;;;;38.03;24.83;;;21.00;99.90;;;;;;5035033;28;20037;-73
2023/10/10 14:16:18;;;;;;;38.58;25.17;;;21.00;99.90;;;;;;5035596;28;20102;-72
2023/10/10 14:18:51;;;;;;;37.22;23.80;;;21.00;99.90;;;;;;5048987;28;20041;-72
2023/10/10 14:21:25;;;;;;;38.58;23.80;;;20.90;99.90;;;;;;5035605;28;20463;-72
2023/10/10 14:24:13;;;;;;;35.10;23.67;;;20.90;99.90;;;;;;5035477;28;20044;-72
2023/10/10 14:26:48;;;;;;;36.33;22.58;;;20.90;99.90;;;;;;5048584;28;20059;-73
2023/10/10 14:29:14;;;;;;;36.65;21.98;;;20.90;99.90;;;;;;5030907;28;20053;-74
2023/10/10 14:31:44;;;;;;;36.78;20.48;;;20.80;99.90;;;;;;5038627;28;20041;-73
2023/10/10 14:34:19;;;;;;;33.58;21.88;;;20.70;99.90;;;;;;5032766;28;20045;-73
2023/10/10 14:36:45;;;;;;;38.75;22.35;;;20.60;99.90;;;;;;5048931;28;20037;-73
2023/10/10 14:39:28;;;;;;;42.28;21.75;;;20.60;99.90;;;;;;5044437;28;20095;-73
2023/10/10 14:41:57;;;;;;;33.83;20.35;;;20.60;99.90;;;;;;5033984;28;20057;-72
2023/10/10 14:44:28;;;;;;;31.45;20.98;;;20.60;99.90;;;;;;5047677;28;20033;-72
2023/10/10 14:46:54;;;;;;;33.63;20.15;;;20.60;99.90;;;;;;5034605;28;20139;-72
2023/10/10 14:49:28;;;;;;;32.85;21.17;;;20.50;99.90;;;;;;5040498;28;20451;-72
2023/10/10 14:52:04;;;;;;;38.78;23.63;;;20.40;99.90;;;;;;5035557;28;20116;-73
2023/10/10 14:54:37;;;;;;;42.15;23.77;;;20.30;99.90;;;;;;5049203;28;20052;-73
2023/10/10 14:57:03;;;;;;;34.65;23.30;;;20.10;99.90;;;;;;5050840;28;20385;-72
2023/10/10 14:59:31;;;;;;;35.53;24.10;;;20.10;99.90;;;;;;5041868;28;20037;-72
2023/10/10 15:02:04;;;;;;;45.85;27.83;;;20.10;99.90;;;;;;5044673;28;20044;-73
2023/10/10 15:04:31;;;;;;;43.10;27.10;;;20.00;99.90;;;;;;5034663;28;20412;-74
2023/10/10 15:06:59;;;;;;;46.60;28.13;;;19.90;99.90;;;;;;5053415;28;20546;-72
2023/10/10 15:09:25;;;;;;;37.70;25.88;;;19.80;99.90;;;;;;5043480;28;20053;-71
2023/10/10 15:11:58;;;;;;;36.38;24.95;;;19.70;99.90;;;;;;5034789;28;20045;-71
2023/10/10 15:14:25;;;;;;;44.42;28.33;;;19.70;99.90;;;;;;5033246;28;20045;-71
2023/10/10 15:16:51;;;;;;;39.03;26.23;;;19.70;99.90;;;;;;5039154;28;20080;-70
2023/10/10 15:19:17;;;;;;;40.08;27.58;;;19.70;99.90;;;;;;5040481;28;20056;-72
2023/10/10 15:21:48;;;;;;;38.55;25.95;;;19.80;99.90;;;;;;5037928;28;20400;-71
2023/10/10 15:24:15;;;;;;;43.97;25.95;;;19.70;99.90;;;;;;5033310;28;20059;-72
2023/10/10 15:26:47;;;;;;;43.88;28.80;;;19.70;99.90;;;;;;5043365;28;20384;-72
2023/10/10 15:29:16;;;;;;;43.20;27.27;;;19.60;99.90;;;;;;5033035;28;20056;-71
2023/10/10 15:31:42;;;;;;;42.35;26.40;;;19.50;99.90;;;;;;5034514;28;20033;-72
2023/10/10 15:34:16;;;;;;;42.33;27.10;;;19.60;99.90;;;;;;5034366;28;20550;-72
2023/10/10 15:36:44;;;;;;;35.15;25.33;;;19.50;99.90;;;;;;5031446;28;20435;-70
2023/10/10 15:39:10;;;;;;;38.03;24.90;;;19.50;99.90;;;;;;5033223;28;20053;-70